Time;durP1;ratioP1;P1;durP2;ratioP2;P2;SDS_P1;SDS_P2;PMS_P1;PMS_P2;Temp;Humidity;BMP_temperature;BMP_pressure;BME280_temperature;BME280_humidity;BME280_pressure;Samples;Min_cycle;Max_cycle;Signal;HPM_P1;HPM_P2
2022/10/27 00:00:40;;;;;;;5.72;3.75;;;;;;;;;;4934361;29;20078;-85
2022/10/27 00:03:11;;;;;;;7.68;4.40;;;;;;;;;;4916708;29;20062;-87
2022/10/27 00:05:42;;;;;;;6.78;4.38;;;;;;;;;;4890780;29;20048;-86
2022/10/27 00:08:12;;;;;;;5.78;4.10;;;;;;;;;;4919964;29;20063;-86
2022/10/27 00:10:41;;;;;;;5.93;4.30;;;;;;;;;;4932324;29;20046;-86
2022/10/27 00:13:08;;;;;;;5.18;3.97;;;;;;;;;;4911052;29;20111;-86
2022/10/27 00:15:39;;;;;;;9.95;4.45;;;;;;;;;;4920841;29;20051;-85
2022/10/27 00:18:08;;;;;;;7.50;4.55;;;;;;;;;;4924134;29;20071;-86
2022/10/27 00:20:35;;;;;;;7.20;4.95;;;;;;;;;;4917247;29;20069;-86
2022/10/27 00:23:02;;;;;;;7.05;4.60;;;;;;;;;;4915461;29;20043;-86
2022/10/27 00:25:29;;;;;;;8.57;5.07;;;;;;;;;;4894365;29;20051;-85
2022/10/27 00:27:56;;;;;;;8.10;4.40;;;;;;;;;;4887271;29;20058;-84
2022/10/27 00:30:24;;;;;;;14.32;5.40;;;;;;;;;;4899365;29;20108;-84
2022/10/27 00:32:52;;;;;;;14.73;5.43;;;;;;;;;;4903035;29;20044;-84
2022/10/27 00:35:20;;;;;;;9.45;4.88;;;;;;;;;;4898479;29;20648;-85
2022/10/27 00:37:47;;;;;;;33.22;5.53;;;;;;;;;;4916366;29;20506;-85
2022/10/27 00:40:15;;;;;;;29.95;5.57;;;;;;;;;;4914881;29;20044;-85
2022/10/27 00:42:43;;;;;;;37.58;5.60;;;;;;;;;;4906820;29;20068;-86
2022/10/27 00:45:10;;;;;;;13.65;4.70;;;;;;;;;;4929749;29;20513;-85
2022/10/27 00:47:38;;;;;;;31.73;5.63;;;;;;;;;;4917636;29;20051;-85
2022/10/27 00:50:08;;;;;;;17.58;4.78;;;;;;;;;;4933741;29;20055;-86
2022/10/27 00:52:38;;;;;;;8.75;3.70;;;;;;;;;;4931603;29;20055;-85
2022/10/27 00:55:07;;;;;;;8.68;4.50;;;;;;;;;;4904842;29;20094;-85
2022/10/27 00:57:35;;;;;;;17.85;4.50;;;;;;;;;;4916090;29;20055;-85
2022/10/27 01:00:03;;;;;;;17.05;4.30;;;;;;;;;;4915183;29;20082;-85
2022/10/27 01:02:32;;;;;;;12.18;4.35;;;;;;;;;;4950701;29;21255;-85
2022/10/27 01:05:01;;;;;;;8.25;4.07;;;;;;;;;;4922979;29;20076;-85
2022/10/27 01:07:29;;;;;;;8.05;4.40;;;;;;;;;;4921786;29;20079;-86
2022/10/27 01:09:56;;;;;;;11.43;4.72;;;;;;;;;;4934987;29;20143;-86
2022/10/27 01:12:24;;;;;;;11.35;4.85;;;;;;;;;;4909214;29;20571;-86
2022/10/27 01:14:51;;;;;;;11.05;4.03;;;;;;;;;;4927549;29;20127;-85
2022/10/27 01:17:25;;;;;;;17.33;4.93;;;;;;;;;;4928544;29;20070;-85
2022/10/27 01:20:24;;;;;;;12.15;4.60;;;;;;;;;;4923530;29;20153;-85
2022/10/27 01:23:03;;;;;;;17.02;4.40;;;;;;;;;;4909057;29;20046;-85
2022/10/27 01:25:37;;;;;;;6.22;4.00;;;;;;;;;;4945726;23;21661;-75
2022/10/27 01:28:07;;;;;;;8.43;4.55;;;;;;;;;;4959488;28;20053;-75
2022/10/27 01:30:50;;;;;;;5.28;4.32;;;;;;;;;;4959910;28;20047;-75
2022/10/27 01:33:21;;;;;;;12.95;4.22;;;;;;;;;;4951709;28;20039;-75
2022/10/27 01:35:54;;;;;;;9.60;4.25;;;;;;;;;;4950294;29;20051;-75
2022/10/27 01:38:30;;;;;;;10.23;4.50;;;;;;;;;;5215462;23;20039;-77
2022/10/27 01:41:18;;;;;;;8.75;4.50;;;;;;;;;;4908762;29;20131;-76
2022/10/27 01:43:47;;;;;;;8.07;4.40;;;;;;;;;;4913158;29;20055;-76
2022/10/27 01:46:15;;;;;;;7.50;4.50;;;;;;;;;;4929018;29;20111;-77
2022/10/27 01:48:43;;;;;;;19.08;4.90;;;;;;;;;;4895391;29;20059;-76
2022/10/27 01:51:10;;;;;;;9.13;4.35;;;;;;;;;;4909930;29;20063;-77
2022/10/27 01:53:43;;;;;;;8.52;4.88;;;;;;;;;;4912754;29;20041;-76
2022/10/27 01:56:29;;;;;;;10.88;4.80;;;;;;;;;;4907904;29;20134;-77
2022/10/27 01:59:07;;;;;;;15.73;5.43;;;;;;;;;;4907443;29;20123;-76
2022/10/27 02:01:41;;;;;;;10.32;5.75;;;;;;;;;;4895337;29;20047;-77
2022/10/27 02:04:22;;;;;;;14.30;6.10;;;;;;;;;;4909740;29;20188;-77
2022/10/27 02:07:04;;;;;;;15.88;6.47;;;;;;;;;;4871825;29;20207;-77
2022/10/27 02:09:38;;;;;;;13.88;6.45;;;;;;;;;;4893598;29;20040;-76
2022/10/27 02:12:08;;;;;;;19.08;6.38;;;;;;;;;;4894437;29;20033;-77
2022/10/27 02:14:37;;;;;;;13.95;6.38;;;;;;;;;;4907362;29;20075;-77
2022/10/27 02:17:05;;;;;;;14.23;6.03;;;;;;;;;;4900427;29;20052;-76
2022/10/27 02:19:37;;;;;;;14.15;6.78;;;;;;;;;;4911548;29;20095;-77
2022/10/27 02:22:04;;;;;;;9.35;6.38;;;;;;;;;;4907266;29;20044;-76
2022/10/27 02:24:32;;;;;;;9.18;6.00;;;;;;;;;;4894790;29;20130;-76
2022/10/27 02:27:03;;;;;;;15.82;6.65;;;;;;;;;;4911349;29;20583;-76
2022/10/27 02:29:33;;;;;;;16.45;6.60;;;;;;;;;;4912184;29;20508;-77
2022/10/27 02:32:02;;;;;;;13.65;6.32;;;;;;;;;;4895915;29;20410;-77
2022/10/27 02:34:30;;;;;;;17.52;6.30;;;;;;;;;;4902973;29;20044;-76
2022/10/27 02:36:57;;;;;;;12.45;6.97;;;;;;;;;;4911509;29;20043;-78
2022/10/27 02:39:25;;;;;;;15.82;5.80;;;;;;;;;;4909623;29;20460;-76
2022/10/27 02:41:52;;;;;;;8.23;6.00;;;;;;;;;;4907833;29;20060;-77
2022/10/27 02:44:19;;;;;;;11.85;5.53;;;;;;;;;;4888840;29;20041;-77
2022/10/27 02:46:46;;;;;;;8.35;5.38;;;;;;;;;;4907836;29;20048;-76
2022/10/27 02:49:19;;;;;;;10.98;6.47;;;;;;;;;;4910837;29;20127;-76
2022/10/27 02:51:47;;;;;;;13.38;5.72;;;;;;;;;;4897163;29;20044;-76
2022/10/27 02:54:14;;;;;;;13.43;5.65;;;;;;;;;;4908886;29;20063;-76
2022/10/27 02:56:41;;;;;;;10.38;6.32;;;;;;;;;;4892457;29;20104;-76
2022/10/27 02:59:08;;;;;;;10.50;5.78;;;;;;;;;;4892863;29;20368;-77
2022/10/27 03:01:36;;;;;;;9.63;5.30;;;;;;;;;;4909250;29;20500;-76
2022/10/27 03:04:03;;;;;;;7.95;4.50;;;;;;;;;;4909158;29;20468;-76
2022/10/27 03:06:30;;;;;;;7.13;4.70;;;;;;;;;;4916439;29;20099;-76
2022/10/27 03:08:58;;;;;;;12.32;4.55;;;;;;;;;;4875818;29;20059;-77
2022/10/27 03:11:25;;;;;;;17.70;4.88;;;;;;;;;;4917567;29;20559;-77
2022/10/27 03:13:53;;;;;;;13.95;4.30;;;;;;;;;;4913967;29;20520;-76
2022/10/27 03:16:20;;;;;;;6.32;4.43;;;;;;;;;;4909941;29;20859;-76
2022/10/27 03:18:47;;;;;;;8.00;5.28;;;;;;;;;;4897249;29;20063;-76
2022/10/27 03:21:15;;;;;;;8.98;3.88;;;;;;;;;;4913819;29;20503;-76
2022/10/27 03:23:42;;;;;;;7.20;3.65;;;;;;;;;;4896343;29;20590;-76
2022/10/27 03:26:10;;;;;;;6.70;4.15;;;;;;;;;;4913126;29;20115;-76
2022/10/27 03:28:37;;;;;;;7.18;3.65;;;;;;;;;;4913266;29;20052;-77
2022/10/27 03:31:05;;;;;;;16.70;4.57;;;;;;;;;;4896925;29;20047;-77
2022/10/27 03:33:32;;;;;;;6.82;3.63;;;;;;;;;;4903347;29;20396;-76
2022/10/27 03:35:59;;;;;;;12.80;4.30;;;;;;;;;;4898199;29;20044;-76
2022/10/27 03:38:27;;;;;;;13.57;3.85;;;;;;;;;;4918310;29;20504;-77
2022/10/27 03:40:54;;;;;;;10.48;3.92;;;;;;;;;;4911879;29;20448;-76
2022/10/27 03:43:22;;;;;;;18.73;4.45;;;;;;;;;;4920064;29;20571;-76
2022/10/27 03:45:49;;;;;;;5.45;3.60;;;;;;;;;;4913473;29;20496;-76
2022/10/27 03:48:17;;;;;;;6.10;4.22;;;;;;;;;;4920167;29;20515;-77
2022/10/27 03:50:46;;;;;;;6.18;4.47;;;;;;;;;;4912908;29;20048;-76
2022/10/27 03:53:14;;;;;;;13.40;4.70;;;;;;;;;;4911382;29;20172;-77
2022/10/27 03:55:41;;;;;;;17.13;4.88;;;;;;;;;;4894499;29;20043;-77
2022/10/27 03:58:13;;;;;;;7.63;4.25;;;;;;;;;;4914136;29;20412;-76
2022/10/27 04:00:43;;;;;;;7.45;4.65;;;;;;;;;;4907197;29;20048;-76
2022/10/27 04:03:11;;;;;;;8.77;4.93;;;;;;;;;;4893612;29;20040;-77
2022/10/27 04:05:39;;;;;;;13.23;4.32;;;;;;;;;;4916241;29;20050;-76
2022/10/27 04:08:06;;;;;;;11.00;4.28;;;;;;;;;;4913642;29;21212;-76
2022/10/27 04:10:34;;;;;;;30.08;4.32;;;;;;;;;;4911200;29;20059;-76
2022/10/27 04:13:01;;;;;;;7.63;4.18;;;;;;;;;;4896620;29;20095;-76
2022/10/27 04:15:29;;;;;;;11.30;4.60;;;;;;;;;;4897386;29;20419;-76
2022/10/27 04:17:57;;;;;;;12.40;4.40;;;;;;;;;;4909136;29;20048;-76
2022/10/27 04:20:25;;;;;;;14.13;4.53;;;;;;;;;;4892880;29;20052;-76
2022/10/27 04:22:54;;;;;;;10.52;4.10;;;;;;;;;;4896898;29;20500;-76
2022/10/27 04:25:22;;;;;;;9.35;3.95;;;;;;;;;;4911248;29;20525;-77
2022/10/27 04:27:49;;;;;;;15.05;4.10;;;;;;;;;;4899867;29;20096;-77
2022/10/27 04:30:17;;;;;;;11.20;3.80;;;;;;;;;;4910818;29;20055;-77
2022/10/27 04:32:44;;;;;;;13.55;4.00;;;;;;;;;;4911609;29;20051;-77
2022/10/27 04:35:12;;;;;;;4.00;3.70;;;;;;;;;;4909925;29;20047;-76
2022/10/27 04:37:39;;;;;;;10.50;4.43;;;;;;;;;;4910657;29;20048;-77
2022/10/27 04:40:07;;;;;;;5.15;3.65;;;;;;;;;;4888045;29;20405;-78
2022/10/27 04:42:34;;;;;;;11.20;3.92;;;;;;;;;;4904621;29;20048;-76
2022/10/27 04:45:03;;;;;;;8.73;4.28;;;;;;;;;;4879223;29;20103;-77
2022/10/27 04:47:31;;;;;;;17.27;4.10;;;;;;;;;;4891807;29;20066;-77
2022/10/27 04:50:01;;;;;;;6.38;4.50;;;;;;;;;;4915259;29;20028;-77
2022/10/27 04:52:29;;;;;;;11.45;3.80;;;;;;;;;;4917481;29;20127;-75
2022/10/27 04:54:58;;;;;;;16.90;4.78;;;;;;;;;;4889600;29;20067;-77
2022/10/27 04:57:25;;;;;;;25.73;4.55;;;;;;;;;;4920950;29;20753;-76
2022/10/27 04:59:53;;;;;;;10.10;4.50;;;;;;;;;;4921806;29;20040;-76
2022/10/27 05:02:20;;;;;;;10.10;4.60;;;;;;;;;;4924025;29;20079;-76
2022/10/27 05:04:51;;;;;;;11.38;3.75;;;;;;;;;;4927227;29;20056;-76
2022/10/27 05:07:18;;;;;;;24.55;4.93;;;;;;;;;;4903766;29;20067;-77
2022/10/27 05:09:46;;;;;;;34.15;4.07;;;;;;;;;;4906040;29;20040;-77
2022/10/27 05:12:13;;;;;;;40.97;4.22;;;;;;;;;;4896708;29;20385;-77
2022/10/27 05:14:41;;;;;;;21.95;3.65;;;;;;;;;;4890898;29;20522;-77
2022/10/27 05:17:08;;;;;;;29.85;3.95;;;;;;;;;;4891169;29;20052;-77
2022/10/27 05:19:36;;;;;;;34.63;4.45;;;;;;;;;;4906357;29;20040;-81
2022/10/27 05:22:04;;;;;;;17.42;3.13;;;;;;;;;;4889823;29;20075;-81
2022/10/27 05:24:31;;;;;;;18.75;3.25;;;;;;;;;;4890573;29;20055;-76
2022/10/27 05:27:02;;;;;;;10.33;3.20;;;;;;;;;;4861539;29;20080;-76
2022/10/27 05:29:30;;;;;;;11.70;3.30;;;;;;;;;;4904741;29;20044;-76
2022/10/27 05:31:57;;;;;;;16.67;3.42;;;;;;;;;;4883926;29;20654;-76
2022/10/27 05:34:25;;;;;;;10.27;3.15;;;;;;;;;;4883745;29;20052;-76
2022/10/27 05:36:52;;;;;;;6.97;3.63;;;;;;;;;;4886097;29;20044;-75
2022/10/27 05:39:19;;;;;;;13.30;3.47;;;;;;;;;;4906595;29;20036;-77
2022/10/27 05:41:47;;;;;;;18.02;3.80;;;;;;;;;;4886710;29;20123;-77
2022/10/27 05:44:14;;;;;;;10.50;3.58;;;;;;;;;;4904613;29;20057;-77
2022/10/27 05:46:41;;;;;;;5.43;3.45;;;;;;;;;;4886028;29;20063;-77
2022/10/27 05:49:09;;;;;;;7.43;3.90;;;;;;;;;;4906536;29;20051;-78
2022/10/27 05:51:36;;;;;;;7.90;4.40;;;;;;;;;;4891455;29;20075;-76
2022/10/27 05:54:09;;;;;;;14.90;4.18;;;;;;;;;;4872920;29;20347;-79
2022/10/27 05:56:37;;;;;;;12.05;2.83;;;;;;;;;;4898436;29;20531;-78
2022/10/27 05:59:04;;;;;;;8.40;3.65;;;;;;;;;;4885209;29;20048;-76
2022/10/27 06:01:31;;;;;;;10.52;3.67;;;;;;;;;;4905736;29;20044;-77
2022/10/27 06:03:59;;;;;;;6.93;3.80;;;;;;;;;;4889049;29;20127;-77
2022/10/27 06:06:26;;;;;;;18.75;4.95;;;;;;;;;;4903855;29;20040;-77
2022/10/27 06:08:54;;;;;;;25.45;5.95;;;;;;;;;;4901172;29;20040;-76
2022/10/27 06:11:21;;;;;;;17.20;5.10;;;;;;;;;;4903980;29;20129;-76
2022/10/27 06:13:50;;;;;;;18.98;4.13;;;;;;;;;;4907165;29;20103;-76
2022/10/27 06:16:19;;;;;;;6.85;4.18;;;;;;;;;;4887843;29;20049;-77
2022/10/27 06:18:46;;;;;;;15.73;4.30;;;;;;;;;;4904754;29;20075;-77
2022/10/27 06:21:14;;;;;;;5.85;3.22;;;;;;;;;;4907506;29;20694;-74
2022/10/27 06:23:41;;;;;;;11.00;3.50;;;;;;;;;;4887257;29;20045;-77
2022/10/27 06:26:10;;;;;;;8.35;3.30;;;;;;;;;;4887384;29;20052;-78
2022/10/27 06:28:37;;;;;;;12.20;4.00;;;;;;;;;;4903415;29;20483;-77
2022/10/27 06:31:05;;;;;;;8.13;4.30;;;;;;;;;;4906523;29;20059;-77
2022/10/27 06:33:35;;;;;;;12.48;3.55;;;;;;;;;;4863720;29;20048;-77
2022/10/27 06:36:02;;;;;;;7.85;4.00;;;;;;;;;;4919677;29;20051;-76
2022/10/27 06:38:30;;;;;;;8.48;4.68;;;;;;;;;;4913842;29;20095;-76
2022/10/27 06:40:57;;;;;;;8.10;4.55;;;;;;;;;;4894857;29;20074;-76
2022/10/27 06:43:25;;;;;;;13.63;4.75;;;;;;;;;;4911908;29;20059;-76
2022/10/27 06:45:52;;;;;;;12.57;3.95;;;;;;;;;;4891271;29;20052;-73
2022/10/27 06:48:20;;;;;;;22.98;5.15;;;;;;;;;;4895671;29;20464;-76
2022/10/27 06:50:47;;;;;;;4.75;4.35;;;;;;;;;;4894740;29;20048;-77
2022/10/27 06:53:14;;;;;;;9.23;4.82;;;;;;;;;;4918834;29;20457;-77
2022/10/27 06:55:46;;;;;;;19.27;4.88;;;;;;;;;;4902240;29;20070;-77
2022/10/27 06:58:16;;;;;;;11.32;4.78;;;;;;;;;;4882993;29;20100;-77
2022/10/27 07:00:43;;;;;;;6.13;4.25;;;;;;;;;;4911040;29;20059;-76
2022/10/27 07:03:12;;;;;;;9.52;4.78;;;;;;;;;;4912946;29;20040;-78
2022/10/27 07:05:39;;;;;;;4.70;4.30;;;;;;;;;;4896228;29;20091;-75
2022/10/27 07:08:07;;;;;;;6.15;4.65;;;;;;;;;;4898981;29;20051;-76
2022/10/27 07:10:34;;;;;;;7.38;5.03;;;;;;;;;;4895143;29;20072;-76
2022/10/27 07:13:01;;;;;;;5.18;4.63;;;;;;;;;;4910565;29;20135;-76
2022/10/27 07:15:31;;;;;;;6.25;4.78;;;;;;;;;;4920599;29;20040;-77
2022/10/27 07:18:00;;;;;;;8.23;4.88;;;;;;;;;;4910708;29;20044;-77
2022/10/27 07:20:29;;;;;;;5.38;4.40;;;;;;;;;;4915329;29;20044;-76
2022/10/27 07:22:57;;;;;;;4.75;4.20;;;;;;;;;;4882872;29;20534;-77
2022/10/27 07:25:28;;;;;;;5.40;4.03;;;;;;;;;;4910932;29;20360;-77
2022/10/27 07:27:57;;;;;;;3.83;3.53;;;;;;;;;;4910570;29;20044;-77
2022/10/27 07:30:27;;;;;;;6.75;5.88;;;;;;;;;;4922664;29;20060;-76
2022/10/27 07:33:09;;;;;;;6.68;5.25;;;;;;;;;;4907039;29;20048;-77
2022/10/27 07:35:37;;;;;;;6.90;4.93;;;;;;;;;;4893640;29;20252;-76
2022/10/27 07:38:05;;;;;;;6.75;5.15;;;;;;;;;;5311943;23;20026;-85
2022/10/27 07:40:33;;;;;;;12.18;4.68;;;;;;;;;;4926366;29;20063;-86
2022/10/27 07:43:29;;;;;;;8.73;4.47;;;;;;;;;;4938419;29;20043;-86
2022/10/27 07:48:55;;;;;;;9.40;4.25;;;;;;;;;;4908740;29;20048;-79
2022/10/27 07:51:25;;;;;;;10.82;4.13;;;;;;;;;;4873785;29;20053;-78
2022/10/27 07:53:53;;;;;;;5.47;4.13;;;;;;;;;;4895000;29;20044;-77
2022/10/27 07:56:24;;;;;;;5.43;4.50;;;;;;;;;;4898693;23;20056;-76
2022/10/27 07:58:52;;;;;;;6.70;4.35;;;;;;;;;;4858937;29;20049;-78
2022/10/27 08:01:21;;;;;;;6.75;4.35;;;;;;;;;;4870933;29;20056;-76
2022/10/27 08:03:54;;;;;;;5.20;4.28;;;;;;;;;;4867293;29;20041;-77
2022/10/27 08:06:22;;;;;;;7.72;4.00;;;;;;;;;;4859262;29;20747;-77
2022/10/27 08:09:09;;;;;;;5.85;5.28;;;;;;;;;;4874679;29;20143;-77
2022/10/27 08:11:37;;;;;;;5.20;4.72;;;;;;;;;;4859061;29;20056;-77
2022/10/27 08:17:01;;;;;;;5.25;4.75;;;;;;;;;;4889275;29;20052;-76
2022/10/27 08:19:31;;;;;;;12.48;5.22;;;;;;;;;;4872202;29;20045;-75
2022/10/27 08:21:58;;;;;;;5.53;5.03;;;;;;;;;;4889118;29;20489;-72
2022/10/27 08:24:25;;;;;;;5.90;4.68;;;;;;;;;;4876231;29;20060;-74
2022/10/27 08:26:54;;;;;;;9.70;5.65;;;;;;;;;;4884910;23;20052;-87
2022/10/27 08:29:27;;;;;;;8.68;5.68;;;;;;;;;;4911599;29;20065;-87
2022/10/27 08:32:08;;;;;;;7.78;5.65;;;;;;;;;;4930860;29;20043;-87
2022/10/27 08:34:42;;;;;;;;;;;;;;;;;;4863186;29;20520;-86
2022/10/27 08:37:15;;;;;;;5.57;4.88;;;;;;;;;;4881055;29;20398;-87
2022/10/27 08:39:42;;;;;;;11.77;5.65;;;;;;;;;;4877324;29;20557;-87
2022/10/27 08:42:25;;;;;;;6.20;5.38;;;;;;;;;;4895150;29;20044;-86
2022/10/27 08:45:15;;;;;;;6.00;4.95;;;;;;;;;;4892511;29;20367;-87
2022/10/27 08:47:43;;;;;;;15.57;5.35;;;;;;;;;;4871711;29;20425;-88
2022/10/27 08:50:20;;;;;;;9.25;5.22;;;;;;;;;;4884590;29;20056;-87
2022/10/27 08:52:53;;;;;;;7.03;4.93;;;;;;;;;;4899682;29;20052;-87
2022/10/27 08:55:44;;;;;;;6.20;5.50;;;;;;;;;;4867843;29;20070;-87
2022/10/27 08:58:24;;;;;;;9.77;6.18;;;;;;;;;;4878287;29;20056;-87
2022/10/27 09:01:04;;;;;;;7.22;6.50;;;;;;;;;;4898790;29;20052;-86
2022/10/27 09:03:32;;;;;;;6.60;5.88;;;;;;;;;;4897823;29;20111;-86
2022/10/27 09:06:31;;;;;;;6.30;5.50;;;;;;;;;;4882868;29;20058;-87
2022/10/27 09:09:17;;;;;;;6.18;5.57;;;;;;;;;;4898851;29;20459;-86
2022/10/27 09:12:27;;;;;;;5.43;5.00;;;;;;;;;;4882648;29;20060;-86
2022/10/27 09:15:29;;;;;;;6.25;5.25;;;;;;;;;;4897311;29;20047;-86
2022/10/27 09:18:02;;;;;;;9.05;4.68;;;;;;;;;;4899214;29;20134;-86
2022/10/27 09:20:37;;;;;;;4.43;4.00;;;;;;;;;;4897642;29;20048;-86
2022/10/27 09:23:13;;;;;;;6.10;4.13;;;;;;;;;;4896363;29;20048;-86
2022/10/27 09:25:47;;;;;;;5.18;4.20;;;;;;;;;;4897364;29;20510;-86
2022/10/27 09:32:02;;;;;;;5.22;4.82;;;;;;;;;;4876721;29;20442;-85
2022/10/27 09:34:45;;;;;;;4.78;4.38;;;;;;;;;;4873291;29;20045;-86
2022/10/27 09:37:22;;;;;;;5.70;4.55;;;;;;;;;;4879001;29;20033;-85
2022/10/27 09:40:00;;;;;;;6.45;4.20;;;;;;;;;;4860683;29;20152;-85
2022/10/27 09:42:30;;;;;;;4.97;4.53;;;;;;;;;;4840080;29;20058;-85
2022/10/27 09:44:59;;;;;;;4.80;4.40;;;;;;;;;;4879402;29;20079;-85
2022/10/27 09:47:29;;;;;;;5.07;4.63;;;;;;;;;;4887895;29;20052;-85
2022/10/27 09:49:56;;;;;;;5.93;4.53;;;;;;;;;;4885560;29;20058;-86
2022/10/27 09:52:33;;;;;;;5.00;4.60;;;;;;;;;;4876277;29;20063;-85
2022/10/27 09:55:00;;;;;;;5.43;4.93;;;;;;;;;;4876430;29;20100;-85
2022/10/27 09:57:31;;;;;;;7.35;4.75;;;;;;;;;;4894476;29;20134;-85
2022/10/27 10:00:04;;;;;;;5.45;4.80;;;;;;;;;;4875834;29;20037;-85
2022/10/27 10:02:41;;;;;;;7.20;4.60;;;;;;;;;;4873055;29;20041;-85
2022/10/27 10:05:35;;;;;;;8.05;4.75;;;;;;;;;;4886497;29;20270;-85
2022/10/27 10:08:12;;;;;;;7.40;5.25;;;;;;;;;;4889221;29;20060;-85
2022/10/27 10:10:52;;;;;;;6.07;5.03;;;;;;;;;;4888276;29;20171;-85
2022/10/27 10:13:23;;;;;;;6.20;4.78;;;;;;;;;;4870022;29;20048;-85
2022/10/27 10:16:08;;;;;;;5.38;4.88;;;;;;;;;;4888634;29;20100;-85
2022/10/27 10:18:35;;;;;;;9.75;5.28;;;;;;;;;;4854076;29;20041;-85
2022/10/27 10:21:07;;;;;;;6.15;5.22;;;;;;;;;;4879258;29;20206;-85
2022/10/27 10:23:36;;;;;;;5.05;4.65;;;;;;;;;;4890791;29;20105;-85
2022/10/27 10:26:05;;;;;;;8.80;5.05;;;;;;;;;;4888851;29;20100;-85
2022/10/27 10:28:35;;;;;;;6.10;5.60;;;;;;;;;;4858752;29;20052;-85
2022/10/27 10:31:08;;;;;;;5.18;4.53;;;;;;;;;;4861550;29;20072;-85
2022/10/27 10:33:40;;;;;;;5.47;4.97;;;;;;;;;;4859156;29;20048;-85
2022/10/27 10:36:26;;;;;;;13.38;5.30;;;;;;;;;;4869784;29;20133;-85
2022/10/27 10:38:56;;;;;;;5.68;4.45;;;;;;;;;;4871531;29;20547;-85
2022/10/27 10:42:05;;;;;;;6.22;4.78;;;;;;;;;;4886636;29;20379;-85
2022/10/27 10:44:35;;;;;;;5.10;4.30;;;;;;;;;;4893017;29;20045;-85
2022/10/27 10:47:07;;;;;;;5.35;3.90;;;;;;;;;;4886876;29;20787;-85
2022/10/27 10:49:37;;;;;;;6.55;4.00;;;;;;;;;;4884453;29;20104;-85
2022/10/27 10:52:19;;;;;;;7.15;5.05;;;;;;;;;;4876180;29;20052;-86
2022/10/27 10:54:56;;;;;;;5.13;3.90;;;;;;;;;;4892689;29;20382;-85
2022/10/27 10:57:34;;;;;;;4.40;4.00;;;;;;;;;;4861185;29;20049;-85
2022/10/27 11:00:04;;;;;;;5.15;4.13;;;;;;;;;;4885323;29;20059;-85
2022/10/27 11:02:50;;;;;;;4.38;3.92;;;;;;;;;;4881572;29;20388;-85
2022/10/27 11:05:24;;;;;;;5.93;4.90;;;;;;;;;;4881246;29;20159;-85
2022/10/27 11:07:52;;;;;;;7.43;4.60;;;;;;;;;;4885638;29;20060;-85
2022/10/27 11:10:25;;;;;;;5.40;3.80;;;;;;;;;;4889982;29;20127;-85
2022/10/27 11:13:01;;;;;;;4.03;3.35;;;;;;;;;;4872703;29;20048;-85
2022/10/27 11:15:40;;;;;;;6.25;3.35;;;;;;;;;;4886097;29;20040;-85
2022/10/27 11:18:10;;;;;;;5.13;3.28;;;;;;;;;;4883790;29;20537;-85
2022/10/27 11:20:47;;;;;;;5.60;3.87;;;;;;;;;;4885679;29;20080;-86
2022/10/27 11:23:27;;;;;;;5.95;3.70;;;;;;;;;;4884388;29;20044;-85
2022/10/27 11:25:58;;;;;;;7.63;4.03;;;;;;;;;;4899986;29;20045;-85
2022/10/27 11:28:43;;;;;;;7.10;3.83;;;;;;;;;;4862789;29;20056;-85
2022/10/27 11:31:20;;;;;;;4.75;3.50;;;;;;;;;;4905747;29;20055;-85
2022/10/27 11:34:08;;;;;;;9.50;4.18;;;;;;;;;;4903949;29;20051;-86
2022/10/27 11:36:53;;;;;;;3.65;3.20;;;;;;;;;;4890754;29;20041;-85
2022/10/27 11:39:26;;;;;;;3.72;2.85;;;;;;;;;;4896731;29;20399;-85
2022/10/27 11:41:57;;;;;;;5.07;3.15;;;;;;;;;;4891838;29;20442;-85
2022/10/27 11:44:28;;;;;;;7.30;3.40;;;;;;;;;;4912520;29;20092;-85
2022/10/27 11:47:06;;;;;;;6.80;3.33;;;;;;;;;;4887321;29;20407;-85
2022/10/27 11:49:45;;;;;;;5.03;3.60;;;;;;;;;;4888970;29;20055;-85
2022/10/27 11:52:16;;;;;;;8.40;3.70;;;;;;;;;;4892761;29;20072;-85
2022/10/27 11:54:44;;;;;;;;;;;;;;;;;;4909318;29;20044;-85
2022/10/27 11:57:14;;;;;;;4.57;3.75;;;;;;;;;;4907292;29;19935;-85
2022/10/27 12:00:12;;;;;;;4.30;3.60;;;;;;;;;;4908600;29;20503;-86
2022/10/27 12:03:03;;;;;;;5.05;2.80;;;;;;;;;;4907206;29;20493;-84
2022/10/27 12:05:35;;;;;;;5.90;3.65;;;;;;;;;;4887806;29;20053;-85
2022/10/27 12:08:29;;;;;;;7.97;3.13;;;;;;;;;;4907296;29;20040;-86
2022/10/27 12:11:20;;;;;;;7.20;3.25;;;;;;;;;;4898981;29;20742;-86
2022/10/27 12:13:54;;;;;;;5.78;2.97;;;;;;;;;;4896610;29;20572;-86
2022/10/27 12:16:50;;;;;;;4.85;2.90;;;;;;;;;;4877516;29;20143;-87
2022/10/27 12:19:41;;;;;;;4.75;2.92;;;;;;;;;;4886105;29;20426;-86
2022/10/27 12:22:37;;;;;;;4.25;2.78;;;;;;;;;;4872734;29;20060;-86
2022/10/27 12:26:17;;;;;;;4.88;2.83;;;;;;;;;;4871507;29;20546;-84
2022/10/27 12:32:33;;;;;;;4.60;3.75;;;;;;;;;;4814474;29;20072;-87
2022/10/27 12:35:15;;;;;;;5.10;3.20;;;;;;;;;;4874488;29;20604;-85
2022/10/27 12:37:47;;;;;;;9.32;3.75;;;;;;;;;;4871584;29;20039;-84
2022/10/27 12:40:28;;;;;;;5.63;3.45;;;;;;;;;;4884634;29;20127;-84
2022/10/27 12:43:14;;;;;;;6.15;3.17;;;;;;;;;;4895583;29;20043;-85
2022/10/27 12:46:06;;;;;;;5.60;3.08;;;;;;;;;;4873898;29;20550;-85
2022/10/27 12:48:51;;;;;;;5.38;3.33;;;;;;;;;;4852824;29;20048;-84
2022/10/27 12:51:32;;;;;;;4.60;3.13;;;;;;;;;;4890625;29;20036;-84
2022/10/27 12:54:10;;;;;;;5.03;3.83;;;;;;;;;;4888008;29;20052;-85
2022/10/27 12:56:46;;;;;;;7.07;3.30;;;;;;;;;;4891129;29;20503;-84
2022/10/27 12:59:33;;;;;;;7.47;4.13;;;;;;;;;;4888030;29;20096;-85
2022/10/27 13:02:11;;;;;;;4.43;3.00;;;;;;;;;;4883597;29;20489;-84
2022/10/27 13:04:49;;;;;;;5.22;3.05;;;;;;;;;;4892967;29;20036;-85
2022/10/27 13:07:59;;;;;;;7.50;3.30;;;;;;;;;;4894644;29;20413;-86
2022/10/27 13:11:13;;;;;;;4.55;3.10;;;;;;;;;;4817774;29;20044;-88
2022/10/27 13:14:08;;;;;;;4.15;3.17;;;;;;;;;;4884809;29;20108;-86
2022/10/27 13:16:40;;;;;;;4.63;3.13;;;;;;;;;;4889500;29;20391;-87
2022/10/27 13:19:20;;;;;;;6.68;3.30;;;;;;;;;;4882338;29;20052;-87
2022/10/27 13:22:10;;;;;;;3.63;3.13;;;;;;;;;;4876455;29;20052;-84
2022/10/27 13:25:07;;;;;;;6.10;2.85;;;;;;;;;;4874222;29;20459;-84
2022/10/27 13:28:18;;;;;;;5.68;3.28;;;;;;;;;;4879536;29;20052;-85
2022/10/27 13:31:03;;;;;;;3.65;2.97;;;;;;;;;;4883861;29;20044;-84
2022/10/27 13:33:58;;;;;;;4.07;3.30;;;;;;;;;;4891145;29;20051;-86
2022/10/27 13:36:37;;;;;;;5.43;3.70;;;;;;;;;;4860242;29;20490;-86
2022/10/27 13:39:34;;;;;;;4.38;2.85;;;;;;;;;;4904310;29;20446;-87
2022/10/27 13:42:15;;;;;;;5.85;3.13;;;;;;;;;;4894194;29;20040;-87
2022/10/27 13:44:46;;;;;;;5.93;3.53;;;;;;;;;;4891173;23;20095;-76
2022/10/27 13:47:15;;;;;;;6.68;3.60;;;;;;;;;;4890505;29;20060;-77
2022/10/27 13:49:42;;;;;;;4.32;3.65;;;;;;;;;;4896609;29;20135;-75
2022/10/27 13:52:10;;;;;;;6.57;3.50;;;;;;;;;;4878299;29;20538;-76
2022/10/27 13:54:46;;;;;;;7.32;3.60;;;;;;;;;;4894451;29;20097;-75
2022/10/27 13:57:33;;;;;;;3.30;2.55;;;;;;;;;;4880835;29;20513;-76
2022/10/27 14:00:17;;;;;;;5.35;2.88;;;;;;;;;;4921061;24;20044;-77
2022/10/27 14:02:47;;;;;;;6.75;2.88;;;;;;;;;;4909054;29;20048;-76
2022/10/27 14:05:35;;;;;;;2.90;2.20;;;;;;;;;;4891113;29;20044;-77
2022/10/27 14:08:03;;;;;;;7.15;6.32;;;;;;;;;;4870619;29;20160;-76
2022/10/27 14:10:31;;;;;;;6.78;5.35;;;;;;;;;;4891086;29;20227;-77
2022/10/27 14:13:00;;;;;;;13.00;5.10;;;;;;;;;;4907325;23;20605;-74
2022/10/27 14:15:32;;;;;;;10.55;6.82;;;;;;;;;;4911800;29;20139;-74
2022/10/27 14:17:59;;;;;;;;;;;;;;;;;;4906670;29;20602;-74
2022/10/27 14:20:26;;;;;;;4.60;4.20;;;;;;;;;;4911636;29;19938;-74
2022/10/27 14:23:05;;;;;;;6.65;4.30;;;;;;;;;;4896223;29;20036;-75
2022/10/27 14:25:33;;;;;;;4.68;3.35;;;;;;;;;;4896173;29;20036;-74
2022/10/27 14:28:14;;;;;;;7.75;4.50;;;;;;;;;;4872611;29;20054;-75
2022/10/27 14:30:46;;;;;;;11.85;6.40;;;;;;;;;;4893558;29;20039;-78
2022/10/27 14:33:16;;;;;;;11.13;8.27;;;;;;;;;;4902334;29;20064;-75
2022/10/27 14:35:43;;;;;;;11.77;5.70;;;;;;;;;;4891660;29;20048;-79
2022/10/27 14:38:13;;;;;;;10.23;5.60;;;;;;;;;;4918827;29;20100;-74
2022/10/27 14:40:41;;;;;;;6.18;4.97;;;;;;;;;;4879051;29;20050;-76
2022/10/27 14:43:22;;;;;;;10.23;5.88;;;;;;;;;;4910755;29;20043;-74
2022/10/27 14:45:54;;;;;;;5.85;4.78;;;;;;;;;;4883809;29;20452;-73
2022/10/27 14:48:32;;;;;;;10.75;4.30;;;;;;;;;;4907583;29;20079;-74
2022/10/27 14:51:01;;;;;;;6.07;3.97;;;;;;;;;;4903468;29;20044;-75
2022/10/27 14:53:34;;;;;;;6.03;3.95;;;;;;;;;;4881711;29;20106;-73
2022/10/27 14:56:05;;;;;;;5.20;3.45;;;;;;;;;;4902611;29;20131;-76
2022/10/27 14:58:32;;;;;;;9.60;2.90;;;;;;;;;;4887998;29;20523;-75
2022/10/27 15:00:59;;;;;;;7.22;3.20;;;;;;;;;;4909879;29;20088;-75
2022/10/27 15:03:33;;;;;;;5.65;2.85;;;;;;;;;;4906774;29;20072;-73
2022/10/27 15:06:01;;;;;;;7.10;3.38;;;;;;;;;;4866485;29;20040;-73
2022/10/27 15:08:34;;;;;;;4.22;2.80;;;;;;;;;;4893288;29;20064;-74
2022/10/27 15:11:05;;;;;;;7.60;3.60;;;;;;;;;;4888392;29;20044;-74
2022/10/27 15:13:33;;;;;;;4.18;3.40;;;;;;;;;;4887871;29;20075;-74
2022/10/27 15:16:06;;;;;;;3.60;3.30;;;;;;;;;;4877143;29;20056;-74
2022/10/27 15:18:35;;;;;;;4.93;3.03;;;;;;;;;;4888120;29;20062;-74
2022/10/27 15:21:10;;;;;;;9.07;3.05;;;;;;;;;;4902720;29;20119;-74
2022/10/27 15:23:41;;;;;;;4.82;2.40;;;;;;;;;;4887877;29;20057;-75
2022/10/27 15:26:12;;;;;;;6.70;2.42;;;;;;;;;;4902501;29;20481;-74
2022/10/27 15:28:40;;;;;;;2.97;2.60;;;;;;;;;;4890070;29;20060;-75